sensor_id;sensor_type;location;lat;lon;timestamp;pressure;altitude;pressure_sealevel;temperature;humidity
80164;BME280;69489;55.130;61.268;2023-05-02T00:00:43;99363.19;;;15.12;26.04
80164;BME280;69489;55.130;61.268;2023-05-02T00:03:10;99337.91;;;14.94;26.18
80164;BME280;69489;55.130;61.268;2023-05-02T00:05:36;99327.63;;;14.91;26.67
80164;BME280;69489;55.130;61.268;2023-05-02T00:08:02;99335.84;;;14.89;26.41
80164;BME280;69489;55.130;61.268;2023-05-02T00:10:28;99327.41;;;14.99;26.18
80164;BME280;69489;55.130;61.268;2023-05-02T00:12:54;99341.38;;;14.95;26.34
80164;BME280;69489;55.130;61.268;2023-05-02T00:15:20;99340.13;;;14.84;26.10
80164;BME280;69489;55.130;61.268;2023-05-02T00:17:46;99349.16;;;14.83;26.50
80164;BME280;69489;55.130;61.268;2023-05-02T00:20:12;99319.56;;;14.64;26.65
80164;BME280;69489;55.130;61.268;2023-05-02T00:22:38;99353.09;;;14.93;26.44
80164;BME280;69489;55.130;61.268;2023-05-02T00:25:05;99343.63;;;14.84;26.38
80164;BME280;69489;55.130;61.268;2023-05-02T00:27:31;99352.03;;;14.81;26.83
80164;BME280;69489;55.130;61.268;2023-05-02T00:29:58;99350.63;;;14.85;26.81
80164;BME280;69489;55.130;61.268;2023-05-02T00:32:26;99323.47;;;14.68;26.15
80164;BME280;69489;55.130;61.268;2023-05-02T00:34:53;99368.28;;;14.80;26.41
80164;BME280;69489;55.130;61.268;2023-05-02T00:37:19;99362.31;;;14.78;26.38
80164;BME280;69489;55.130;61.268;2023-05-02T00:39:45;99331.44;;;14.62;26.79
80164;BME280;69489;55.130;61.268;2023-05-02T00:42:10;99335.97;;;14.61;26.62
80164;BME280;69489;55.130;61.268;2023-05-02T00:44:36;99340.31;;;14.62;26.60
80164;BME280;69489;55.130;61.268;2023-05-02T00:47:02;99343.38;;;14.66;26.47
80164;BME280;69489;55.130;61.268;2023-05-02T00:49:28;99315.56;;;14.47;26.58
80164;BME280;69489;55.130;61.268;2023-05-02T00:51:55;99339.28;;;14.70;26.25
80164;BME280;69489;55.130;61.268;2023-05-02T00:54:27;99312.28;;;14.45;26.43
80164;BME280;69489;55.130;61.268;2023-05-02T00:57:16;99322.00;;;14.59;26.39
80164;BME280;69489;55.130;61.268;2023-05-02T00:59:42;99326.75;;;14.70;26.20
80164;BME280;69489;55.130;61.268;2023-05-02T01:04:53;99317.72;;;14.78;26.59
80164;BME280;69489;55.130;61.268;2023-05-02T01:12:54;99368.09;;;14.95;26.29
80164;BME280;69489;55.130;61.268;2023-05-02T01:15:22;99376.28;;;14.86;26.18
80164;BME280;69489;55.130;61.268;2023-05-02T01:17:49;99385.75;;;14.82;26.46
80164;BME280;69489;55.130;61.268;2023-05-02T01:20:19;99388.22;;;14.90;26.29
80164;BME280;69489;55.130;61.268;2023-05-02T01:22:46;99377.72;;;14.75;26.24
80164;BME280;69489;55.130;61.268;2023-05-02T01:30:33;99369.50;;;14.77;26.11
80164;BME280;69489;55.130;61.268;2023-05-02T01:33:01;99380.63;;;14.87;25.43
80164;BME280;69489;55.130;61.268;2023-05-02T01:35:30;99375.84;;;14.69;26.08
80164;BME280;69489;55.130;61.268;2023-05-02T01:37:58;99369.91;;;14.67;25.98
80164;BME280;69489;55.130;61.268;2023-05-02T01:40:25;99391.91;;;14.76;26.04
80164;BME280;69489;55.130;61.268;2023-05-02T01:42:52;99395.41;;;14.83;26.28
80164;BME280;69489;55.130;61.268;2023-05-02T01:45:20;99394.78;;;14.81;26.03
80164;BME280;69489;55.130;61.268;2023-05-02T01:47:47;99387.19;;;14.78;25.96
80164;BME280;69489;55.130;61.268;2023-05-02T01:50:17;99373.38;;;14.61;25.95
80164;BME280;69489;55.130;61.268;2023-05-02T01:52:46;99383.41;;;14.59;25.84
80164;BME280;69489;55.130;61.268;2023-05-02T01:55:14;99381.56;;;14.60;25.73
80164;BME280;69489;55.130;61.268;2023-05-02T01:57:45;99392.31;;;14.73;25.96
80164;BME280;69489;55.130;61.268;2023-05-02T02:00:12;99409.81;;;14.82;26.27
80164;BME280;69489;55.130;61.268;2023-05-02T02:02:40;99386.72;;;14.68;26.22
80164;BME280;69489;55.130;61.268;2023-05-02T02:05:06;99394.78;;;14.74;26.82
80164;BME280;69489;55.130;61.268;2023-05-02T02:07:33;99392.94;;;14.75;26.63
80164;BME280;69489;55.130;61.268;2023-05-02T02:09:59;99416.00;;;14.89;26.54
80164;BME280;69489;55.130;61.268;2023-05-02T02:12:27;99411.44;;;14.83;26.48
80164;BME280;69489;55.130;61.268;2023-05-02T02:14:59;99421.13;;;14.91;26.79
80164;BME280;69489;55.130;61.268;2023-05-02T02:17:35;99399.53;;;14.79;26.11
80164;BME280;69489;55.130;61.268;2023-05-02T02:20:04;99421.53;;;14.88;26.34
80164;BME280;69489;55.130;61.268;2023-05-02T02:22:34;99377.91;;;14.61;26.60
80164;BME280;69489;55.130;61.268;2023-05-02T02:25:04;99396.41;;;14.69;26.39
80164;BME280;69489;55.130;61.268;2023-05-02T02:27:31;99396.03;;;14.85;26.17
80164;BME280;69489;55.130;61.268;2023-05-02T02:29:57;99387.97;;;14.65;26.00
80164;BME280;69489;55.130;61.268;2023-05-02T02:32:23;99407.34;;;14.87;26.00
80164;BME280;69489;55.130;61.268;2023-05-02T02:34:49;99411.63;;;14.82;26.35
80164;BME280;69489;55.130;61.268;2023-05-02T02:37:18;99425.47;;;14.99;26.33
80164;BME280;69489;55.130;61.268;2023-05-02T02:40:07;99421.13;;;14.98;26.43
80164;BME280;69489;55.130;61.268;2023-05-02T02:42:38;99427.13;;;15.06;26.03
80164;BME280;69489;55.130;61.268;2023-05-02T02:45:22;99420.28;;;14.84;26.70
80164;BME280;69489;55.130;61.268;2023-05-02T02:47:58;99416.97;;;14.82;26.31
80164;BME280;69489;55.130;61.268;2023-05-02T02:53:13;99413.72;;;15.00;25.95
80164;BME280;69489;55.130;61.268;2023-05-02T02:55:56;99420.34;;;15.24;26.24
80164;BME280;69489;55.130;61.268;2023-05-02T02:58:29;99425.09;;;15.22;26.10
80164;BME280;69489;55.130;61.268;2023-05-02T03:00:58;99432.69;;;15.12;26.42
80164;BME280;69489;55.130;61.268;2023-05-02T03:03:35;99429.81;;;15.13;26.89
80164;BME280;69489;55.130;61.268;2023-05-02T03:06:03;99423.25;;;15.29;26.41
80164;BME280;69489;55.130;61.268;2023-05-02T03:08:41;99417.28;;;15.20;26.10
80164;BME280;69489;55.130;61.268;2023-05-02T03:11:07;99437.22;;;15.31;26.16
80164;BME280;69489;55.130;61.268;2023-05-02T03:13:34;99406.34;;;15.15;26.56
80164;BME280;69489;55.130;61.268;2023-05-02T03:16:33;99448.13;;;15.36;26.01
80164;BME280;69489;55.130;61.268;2023-05-02T03:18:59;99442.78;;;15.36;26.00
80164;BME280;69489;55.130;61.268;2023-05-02T03:21:25;99464.41;;;15.55;26.28
80164;BME280;69489;55.130;61.268;2023-05-02T03:23:51;99444.44;;;15.37;25.77
80164;BME280;69489;55.130;61.268;2023-05-02T03:26:17;99444.66;;;15.29;25.68
80164;BME280;69489;55.130;61.268;2023-05-02T03:28:43;99471.59;;;15.54;25.98
80164;BME280;69489;55.130;61.268;2023-05-02T03:31:12;99455.34;;;15.56;25.32
80164;BME280;69489;55.130;61.268;2023-05-02T03:33:39;99438.06;;;15.45;25.44
80164;BME280;69489;55.130;61.268;2023-05-02T03:36:06;99475.72;;;15.77;25.46
80164;BME280;69489;55.130;61.268;2023-05-02T03:38:32;99462.16;;;15.72;25.40
80164;BME280;69489;55.130;61.268;2023-05-02T03:41:00;99476.56;;;15.77;25.11
80164;BME280;69489;55.130;61.268;2023-05-02T03:43:29;99486.25;;;15.78;25.29
80164;BME280;69489;55.130;61.268;2023-05-02T03:45:55;99462.13;;;15.65;25.14
80164;BME280;69489;55.130;61.268;2023-05-02T03:48:21;99471.44;;;15.83;25.00
80164;BME280;69489;55.130;61.268;2023-05-02T03:50:47;99473.47;;;15.94;24.94
80164;BME280;69489;55.130;61.268;2023-05-02T03:53:14;99486.25;;;16.05;25.08
80164;BME280;69489;55.130;61.268;2023-05-02T03:55:40;99478.97;;;16.26;25.19
80164;BME280;69489;55.130;61.268;2023-05-02T03:58:07;99450.41;;;16.06;24.76
80164;BME280;69489;55.130;61.268;2023-05-02T04:00:33;99467.88;;;16.22;24.81
80164;BME280;69489;55.130;61.268;2023-05-02T04:03:02;99468.50;;;16.31;25.03
80164;BME280;69489;55.130;61.268;2023-05-02T04:05:28;99452.22;;;16.19;25.19
80164;BME280;69489;55.130;61.268;2023-05-02T04:07:57;99453.22;;;16.31;25.18
80164;BME280;69489;55.130;61.268;2023-05-02T04:10:23;99454.44;;;16.42;24.65
80164;BME280;69489;55.130;61.268;2023-05-02T04:12:49;99427.06;;;16.33;25.25
80164;BME280;69489;55.130;61.268;2023-05-02T04:15:15;99423.56;;;16.33;24.55
80164;BME280;69489;55.130;61.268;2023-05-02T04:17:41;99420.63;;;16.48;24.44
80164;BME280;69489;55.130;61.268;2023-05-02T04:20:07;99419.38;;;16.50;24.80
80164;BME280;69489;55.130;61.268;2023-05-02T04:22:33;99409.44;;;16.58;24.76
80164;BME280;69489;55.130;61.268;2023-05-02T04:24:59;99396.00;;;16.71;24.92
80164;BME280;69489;55.130;61.268;2023-05-02T04:27:25;99387.00;;;16.59;24.56
80164;BME280;69489;55.130;61.268;2023-05-02T04:29:51;99359.03;;;16.48;24.43
80164;BME280;69489;55.130;61.268;2023-05-02T04:32:18;99376.75;;;16.49;24.39
80164;BME280;69489;55.130;61.268;2023-05-02T04:34:43;99352.00;;;16.47;24.42
80164;BME280;69489;55.130;61.268;2023-05-02T04:37:09;99360.13;;;16.72;24.48
80164;BME280;69489;55.130;61.268;2023-05-02T04:39:35;99354.50;;;16.80;23.65
80164;BME280;69489;55.130;61.268;2023-05-02T04:42:04;99361.16;;;16.71;23.93
80164;BME280;69489;55.130;61.268;2023-05-02T04:44:29;99337.75;;;16.53;23.38
80164;BME280;69489;55.130;61.268;2023-05-02T04:46:55;99341.22;;;16.60;24.03
80164;BME280;69489;55.130;61.268;2023-05-02T04:49:21;99342.91;;;16.55;23.72
80164;BME280;69489;55.130;61.268;2023-05-02T04:51:47;99350.06;;;16.67;23.66
80164;BME280;69489;55.130;61.268;2023-05-02T04:54:13;99331.09;;;16.62;23.13
80164;BME280;69489;55.130;61.268;2023-05-02T04:56:40;99337.75;;;16.85;23.23
80164;BME280;69489;55.130;61.268;2023-05-02T04:59:05;99305.88;;;16.45;23.14
80164;BME280;69489;55.130;61.268;2023-05-02T05:01:31;99326.63;;;16.56;23.26
80164;BME280;69489;55.130;61.268;2023-05-02T05:03:57;99316.09;;;16.61;23.29
80164;BME280;69489;55.130;61.268;2023-05-02T05:06:23;99309.53;;;16.89;22.95
80164;BME280;69489;55.130;61.268;2023-05-02T05:08:49;99316.03;;;17.00;23.01
80164;BME280;69489;55.130;61.268;2023-05-02T05:11:14;99317.34;;;16.91;22.97
80164;BME280;69489;55.130;61.268;2023-05-02T05:13:41;99313.69;;;17.10;22.96
80164;BME280;69489;55.130;61.268;2023-05-02T05:16:07;99333.06;;;17.37;22.78
80164;BME280;69489;55.130;61.268;2023-05-02T05:18:33;99335.31;;;17.40;22.83
80164;BME280;69489;55.130;61.268;2023-05-02T05:21:08;99329.97;;;17.34;22.79
80164;BME280;69489;55.130;61.268;2023-05-02T05:23:35;99338.81;;;17.41;22.74
80164;BME280;69489;55.130;61.268;2023-05-02T05:26:11;99342.69;;;17.45;22.56
80164;BME280;69489;55.130;61.268;2023-05-02T05:28:37;99363.19;;;17.58;22.78
80164;BME280;69489;55.130;61.268;2023-05-02T05:31:07;99356.34;;;17.62;22.37
80164;BME280;69489;55.130;61.268;2023-05-02T05:33:34;99369.56;;;17.89;22.51
80164;BME280;69489;55.130;61.268;2023-05-02T05:36:11;99370.28;;;17.96;22.10
80164;BME280;69489;55.130;61.268;2023-05-02T05:38:38;99367.72;;;17.83;22.43
80164;BME280;69489;55.130;61.268;2023-05-02T05:41:05;99364.28;;;17.75;22.36
80164;BME280;69489;55.130;61.268;2023-05-02T05:43:32;99362.91;;;17.91;22.14
80164;BME280;69489;55.130;61.268;2023-05-02T05:45:58;99351.19;;;17.86;21.65
80164;BME280;69489;55.130;61.268;2023-05-02T05:48:24;99367.53;;;18.03;21.88
80164;BME280;69489;55.130;61.268;2023-05-02T05:50:50;99389.69;;;18.17;22.07
80164;BME280;69489;55.130;61.268;2023-05-02T05:53:17;99385.06;;;18.05;21.55
80164;BME280;69489;55.130;61.268;2023-05-02T05:55:43;99381.94;;;18.08;21.88
80164;BME280;69489;55.130;61.268;2023-05-02T05:58:09;99381.72;;;18.28;21.74
80164;BME280;69489;55.130;61.268;2023-05-02T06:00:36;99389.06;;;18.52;21.91
80164;BME280;69489;55.130;61.268;2023-05-02T06:03:02;99382.81;;;18.39;21.27
80164;BME280;69489;55.130;61.268;2023-05-02T06:05:28;99397.00;;;18.46;21.20
80164;BME280;69489;55.130;61.268;2023-05-02T06:07:54;99390.78;;;18.64;21.49
80164;BME280;69489;55.130;61.268;2023-05-02T06:10:22;99382.19;;;18.56;21.57
80164;BME280;69489;55.130;61.268;2023-05-02T06:12:48;99362.28;;;18.45;21.08
80164;BME280;69489;55.130;61.268;2023-05-02T06:15:14;99389.13;;;18.63;21.65
80164;BME280;69489;55.130;61.268;2023-05-02T06:17:39;99362.47;;;18.62;21.19
80164;BME280;69489;55.130;61.268;2023-05-02T06:20:08;99352.69;;;18.68;21.50
80164;BME280;69489;55.130;61.268;2023-05-02T06:22:36;99388.25;;;18.81;21.50
80164;BME280;69489;55.130;61.268;2023-05-02T06:25:02;99360.31;;;18.82;21.09
80164;BME280;69489;55.130;61.268;2023-05-02T06:27:29;99393.72;;;18.93;21.22
80164;BME280;69489;55.130;61.268;2023-05-02T06:29:55;99366.75;;;18.81;20.83
80164;BME280;69489;55.130;61.268;2023-05-02T06:32:23;99374.66;;;18.95;21.05
80164;BME280;69489;55.130;61.268;2023-05-02T06:34:49;99342.38;;;18.95;21.03
80164;BME280;69489;55.130;61.268;2023-05-02T06:37:15;99373.66;;;19.20;21.06
80164;BME280;69489;55.130;61.268;2023-05-02T06:39:41;99352.00;;;19.14;21.26
80164;BME280;69489;55.130;61.268;2023-05-02T06:42:17;99350.63;;;19.24;20.94
80164;BME280;69489;55.130;61.268;2023-05-02T06:44:43;99337.25;;;19.05;20.81
80164;BME280;69489;55.130;61.268;2023-05-02T06:47:09;99377.53;;;19.35;20.87
80164;BME280;69489;55.130;61.268;2023-05-02T06:49:35;99351.31;;;19.31;20.73
80164;BME280;69489;55.130;61.268;2023-05-02T06:52:01;99366.06;;;19.40;20.49
80164;BME280;69489;55.130;61.268;2023-05-02T06:54:26;99339.03;;;19.35;20.63
80164;BME280;69489;55.130;61.268;2023-05-02T06:56:53;99364.66;;;19.73;21.01
80164;BME280;69489;55.130;61.268;2023-05-02T06:59:18;99359.84;;;19.75;20.53
80164;BME280;69489;55.130;61.268;2023-05-02T07:01:46;99330.84;;;19.65;20.37
80164;BME280;69489;55.130;61.268;2023-05-02T07:04:17;99366.59;;;19.84;20.85
80164;BME280;69489;55.130;61.268;2023-05-02T07:06:46;99338.09;;;19.88;20.34
80164;BME280;69489;55.130;61.268;2023-05-02T07:09:11;99362.91;;;20.02;20.48
80164;BME280;69489;55.130;61.268;2023-05-02T07:11:37;99358.38;;;19.91;20.38
80164;BME280;69489;55.130;61.268;2023-05-02T07:14:03;99341.00;;;19.75;20.38
80164;BME280;69489;55.130;61.268;2023-05-02T07:16:29;99348.28;;;19.98;20.61
80164;BME280;69489;55.130;61.268;2023-05-02T07:18:55;99343.56;;;20.05;20.38
80164;BME280;69489;55.130;61.268;2023-05-02T07:21:21;99351.28;;;20.14;19.93
80164;BME280;69489;55.130;61.268;2023-05-02T07:23:46;99358.19;;;20.21;20.48
80164;BME280;69489;55.130;61.268;2023-05-02T07:26:12;99344.84;;;20.15;21.16
80164;BME280;69489;55.130;61.268;2023-05-02T07:28:38;99356.66;;;20.26;20.18
80164;BME280;69489;55.130;61.268;2023-05-02T07:31:04;99349.06;;;20.22;20.46
80164;BME280;69489;55.130;61.268;2023-05-02T07:33:30;99359.66;;;20.41;20.06
80164;BME280;69489;55.130;61.268;2023-05-02T07:35:55;99361.22;;;20.54;19.97
80164;BME280;69489;55.130;61.268;2023-05-02T07:38:21;99345.28;;;20.52;19.97
80164;BME280;69489;55.130;61.268;2023-05-02T07:40:47;99345.41;;;20.57;20.16
80164;BME280;69489;55.130;61.268;2023-05-02T07:43:13;99338.78;;;20.48;20.37
80164;BME280;69489;55.130;61.268;2023-05-02T07:45:40;99352.66;;;20.69;19.84
80164;BME280;69489;55.130;61.268;2023-05-02T07:48:06;99332.50;;;20.59;19.99
80164;BME280;69489;55.130;61.268;2023-05-02T07:50:38;99329.47;;;20.56;19.68
80164;BME280;69489;55.130;61.268;2023-05-02T07:53:04;99315.31;;;20.49;19.93
80164;BME280;69489;55.130;61.268;2023-05-02T07:55:30;99309.19;;;20.53;20.00
80164;BME280;69489;55.130;61.268;2023-05-02T07:57:58;99353.06;;;20.77;20.21
80164;BME280;69489;55.130;61.268;2023-05-02T08:00:25;99347.88;;;20.88;20.34
80164;BME280;69489;55.130;61.268;2023-05-02T08:02:50;99345.41;;;20.86;19.61
80164;BME280;69489;55.130;61.268;2023-05-02T08:05:16;99346.06;;;20.93;19.72
80164;BME280;69489;55.130;61.268;2023-05-02T08:07:42;99327.91;;;20.89;19.97
80164;BME280;69489;55.130;61.268;2023-05-02T08:10:09;99321.38;;;20.85;19.76
80164;BME280;69489;55.130;61.268;2023-05-02T08:12:41;99310.09;;;20.88;19.62
80164;BME280;69489;55.130;61.268;2023-05-02T08:15:12;99345.75;;;21.07;19.56
80164;BME280;69489;55.130;61.268;2023-05-02T08:17:41;99308.03;;;20.95;19.60
80164;BME280;69489;55.130;61.268;2023-05-02T08:20:07;99302.69;;;21.12;19.93
80164;BME280;69489;55.130;61.268;2023-05-02T08:22:50;99346.50;;;21.53;20.15
80164;BME280;69489;55.130;61.268;2023-05-02T08:25:40;99327.97;;;21.62;20.09
80164;BME280;69489;55.130;61.268;2023-05-02T08:32:23;99327.47;;;21.65;19.49
80164;BME280;69489;55.130;61.268;2023-05-02T08:34:50;99333.22;;;21.69;19.86
80164;BME280;69489;55.130;61.268;2023-05-02T08:37:25;99314.16;;;21.58;19.50
80164;BME280;69489;55.130;61.268;2023-05-02T08:40:10;99318.56;;;21.64;19.44
80164;BME280;69489;55.130;61.268;2023-05-02T08:42:41;99308.66;;;21.70;19.27
80164;BME280;69489;55.130;61.268;2023-05-02T08:45:07;99325.88;;;21.86;19.96
80164;BME280;69489;55.130;61.268;2023-05-02T08:47:35;99318.97;;;21.95;20.00
80164;BME280;69489;55.130;61.268;2023-05-02T08:50:02;99326.44;;;22.10;19.52
80164;BME280;69489;55.130;61.268;2023-05-02T08:52:30;99339.03;;;22.22;19.99
80164;BME280;69489;55.130;61.268;2023-05-02T08:54:58;99304.03;;;22.10;19.66
80164;BME280;69489;55.130;61.268;2023-05-02T08:57:27;99310.97;;;22.28;20.03
80164;BME280;69489;55.130;61.268;2023-05-02T08:59:54;99318.53;;;22.48;20.17
80164;BME280;69489;55.130;61.268;2023-05-02T09:05:06;99344.00;;;22.79;19.13
80164;BME280;69489;55.130;61.268;2023-05-02T09:07:52;99347.97;;;22.99;18.61
80164;BME280;69489;55.130;61.268;2023-05-02T09:10:17;99340.69;;;23.04;19.04
80164;BME280;69489;55.130;61.268;2023-05-02T09:12:44;99352.75;;;23.19;18.62
80164;BME280;69489;55.130;61.268;2023-05-02T09:15:14;99314.53;;;23.15;18.60
80164;BME280;69489;55.130;61.268;2023-05-02T09:17:45;99322.03;;;23.35;19.24
80164;BME280;69489;55.130;61.268;2023-05-02T09:20:14;99315.50;;;23.36;19.04
80164;BME280;69489;55.130;61.268;2023-05-02T09:22:50;99337.31;;;23.57;18.98
80164;BME280;69489;55.130;61.268;2023-05-02T09:25:18;99351.41;;;23.59;18.44
80164;BME280;69489;55.130;61.268;2023-05-02T09:27:55;99348.25;;;23.77;18.68
80164;BME280;69489;55.130;61.268;2023-05-02T09:30:25;99344.59;;;23.94;18.93
80164;BME280;69489;55.130;61.268;2023-05-02T09:32:51;99338.13;;;24.05;18.26
80164;BME280;69489;55.130;61.268;2023-05-02T09:35:19;99363.72;;;24.25;18.07
80164;BME280;69489;55.130;61.268;2023-05-02T09:37:53;99354.22;;;24.27;18.07
80164;BME280;69489;55.130;61.268;2023-05-02T09:40:19;99346.66;;;24.35;18.88
80164;BME280;69489;55.130;61.268;2023-05-02T09:42:45;99348.56;;;24.39;18.35
80164;BME280;69489;55.130;61.268;2023-05-02T09:45:24;99366.00;;;24.59;18.34
80164;BME280;69489;55.130;61.268;2023-05-02T09:47:51;99348.06;;;24.53;18.40
80164;BME280;69489;55.130;61.268;2023-05-02T09:50:34;99359.50;;;24.65;18.50
80164;BME280;69489;55.130;61.268;2023-05-02T09:53:01;99344.28;;;24.64;18.75
80164;BME280;69489;55.130;61.268;2023-05-02T09:55:27;99348.41;;;24.82;18.78
80164;BME280;69489;55.130;61.268;2023-05-02T09:57:54;99351.41;;;24.91;18.46
80164;BME280;69489;55.130;61.268;2023-05-02T10:00:20;99337.84;;;24.86;18.33
80164;BME280;69489;55.130;61.268;2023-05-02T10:02:48;99349.50;;;25.07;18.38
80164;BME280;69489;55.130;61.268;2023-05-02T10:05:16;99360.09;;;25.18;18.68
80164;BME280;69489;55.130;61.268;2023-05-02T10:07:43;99337.56;;;25.18;18.36
80164;BME280;69489;55.130;61.268;2023-05-02T10:10:13;99305.78;;;25.08;18.76
80164;BME280;69489;55.130;61.268;2023-05-02T10:12:41;99302.25;;;25.23;19.10
80164;BME280;69489;55.130;61.268;2023-05-02T10:15:08;99320.47;;;25.43;19.15
80164;BME280;69489;55.130;61.268;2023-05-02T10:17:47;99323.66;;;25.66;18.62
80164;BME280;69489;55.130;61.268;2023-05-02T10:20:21;99314.66;;;25.70;18.58
80164;BME280;69489;55.130;61.268;2023-05-02T10:22:48;99311.38;;;25.84;18.40
80164;BME280;69489;55.130;61.268;2023-05-02T10:25:15;99317.28;;;26.06;18.81
80164;BME280;69489;55.130;61.268;2023-05-02T10:27:41;99312.59;;;26.22;18.07
80164;BME280;69489;55.130;61.268;2023-05-02T10:30:08;99318.75;;;26.44;18.31
80164;BME280;69489;55.130;61.268;2023-05-02T10:32:35;99324.56;;;26.71;18.26
80164;BME280;69489;55.130;61.268;2023-05-02T10:35:04;99323.88;;;26.90;18.38
80164;BME280;69489;55.130;61.268;2023-05-02T10:37:31;99313.69;;;27.06;17.84
80164;BME280;69489;55.130;61.268;2023-05-02T10:40:01;99318.91;;;27.32;17.74
80164;BME280;69489;55.130;61.268;2023-05-02T10:42:29;99306.31;;;27.41;17.88
80164;BME280;69489;55.130;61.268;2023-05-02T10:44:55;99312.06;;;27.63;17.86
80164;BME280;69489;55.130;61.268;2023-05-02T10:47:21;99309.59;;;27.86;17.82
80164;BME280;69489;55.130;61.268;2023-05-02T10:49:59;99310.06;;;27.98;18.12
80164;BME280;69489;55.130;61.268;2023-05-02T11:00:28;99308.56;;;29.01;17.47
80164;BME280;69489;55.130;61.268;2023-05-02T11:02:55;99278.44;;;29.06;17.24
80164;BME280;69489;55.130;61.268;2023-05-02T11:05:22;99306.44;;;29.45;16.94
80164;BME280;69489;55.130;61.268;2023-05-02T11:07:49;99294.72;;;29.58;17.16
80164;BME280;69489;55.130;61.268;2023-05-02T11:12:50;99299.47;;;30.08;16.68
80164;BME280;69489;55.130;61.268;2023-05-02T11:18:13;99285.03;;;30.44;16.68
80164;BME280;69489;55.130;61.268;2023-05-02T11:20:40;99292.88;;;30.60;16.31
80164;BME280;69489;55.130;61.268;2023-05-02T11:25:48;99271.09;;;30.77;15.53
80164;BME280;69489;55.130;61.268;2023-05-02T11:31:09;99285.66;;;31.09;15.53
80164;BME280;69489;55.130;61.268;2023-05-02T11:34:01;99271.16;;;31.09;15.25
80164;BME280;69489;55.130;61.268;2023-05-02T11:36:33;99271.00;;;31.14;15.77
80164;BME280;69489;55.130;61.268;2023-05-02T11:39:01;99277.66;;;31.22;15.57
80164;BME280;69489;55.130;61.268;2023-05-02T11:41:43;99286.44;;;31.32;14.91
80164;BME280;69489;55.130;61.268;2023-05-02T11:44:09;99290.03;;;31.42;15.31
80164;BME280;69489;55.130;61.268;2023-05-02T11:46:38;99277.94;;;31.51;15.15
80164;BME280;69489;55.130;61.268;2023-05-02T11:49:05;99287.25;;;31.73;15.28
80164;BME280;69489;55.130;61.268;2023-05-02T11:51:33;99284.06;;;31.97;15.18
80164;BME280;69489;55.130;61.268;2023-05-02T11:53:59;99272.47;;;32.09;14.92
80164;BME280;69489;55.130;61.268;2023-05-02T11:56:25;99274.94;;;32.37;14.76
80164;BME280;69489;55.130;61.268;2023-05-02T11:58:58;99253.94;;;32.50;14.76
80164;BME280;69489;55.130;61.268;2023-05-02T12:01:25;99259.44;;;32.58;15.04
80164;BME280;69489;55.130;61.268;2023-05-02T12:04:03;99290.75;;;33.01;14.15
80164;BME280;69489;55.130;61.268;2023-05-02T12:06:30;99267.72;;;33.23;13.32
80164;BME280;69489;55.130;61.268;2023-05-02T12:09:13;99298.66;;;33.59;13.39
80164;BME280;69489;55.130;61.268;2023-05-02T12:11:43;99302.16;;;33.77;13.97
80164;BME280;69489;55.130;61.268;2023-05-02T12:14:11;99295.22;;;34.00;13.00
80164;BME280;69489;55.130;61.268;2023-05-02T12:16:37;99287.03;;;34.13;12.60
80164;BME280;69489;55.130;61.268;2023-05-02T12:19:03;99291.91;;;34.37;13.06
80164;BME280;69489;55.130;61.268;2023-05-02T12:21:29;99280.06;;;34.58;12.73
80164;BME280;69489;55.130;61.268;2023-05-02T12:23:57;99284.34;;;35.01;12.22
80164;BME280;69489;55.130;61.268;2023-05-02T12:26:24;99262.22;;;35.10;12.39
80164;BME280;69489;55.130;61.268;2023-05-02T12:28:54;99278.94;;;35.38;12.49
80164;BME280;69489;55.130;61.268;2023-05-02T12:31:21;99269.41;;;35.48;12.42
80164;BME280;69489;55.130;61.268;2023-05-02T12:33:48;99275.81;;;35.76;12.06
80164;BME280;69489;55.130;61.268;2023-05-02T12:36:19;99276.88;;;35.97;11.87
80164;BME280;69489;55.130;61.268;2023-05-02T12:38:52;99279.72;;;36.13;11.64
80164;BME280;69489;55.130;61.268;2023-05-02T12:41:36;99263.63;;;36.02;11.71
80164;BME280;69489;55.130;61.268;2023-05-02T12:44:03;99271.22;;;36.05;12.02
80164;BME280;69489;55.130;61.268;2023-05-02T12:46:29;99270.41;;;36.05;11.91
80164;BME280;69489;55.130;61.268;2023-05-02T12:49:08;99263.06;;;35.97;11.74
80164;BME280;69489;55.130;61.268;2023-05-02T12:51:34;99277.88;;;36.04;11.94
80164;BME280;69489;55.130;61.268;2023-05-02T12:54:01;99253.06;;;35.80;11.75
80164;BME280;69489;55.130;61.268;2023-05-02T12:56:27;99259.50;;;35.71;11.79
80164;BME280;69489;55.130;61.268;2023-05-02T12:58:57;99268.00;;;35.66;11.76
80164;BME280;69489;55.130;61.268;2023-05-02T13:01:28;99243.28;;;35.33;12.26
80164;BME280;69489;55.130;61.268;2023-05-02T13:03:55;99260.88;;;35.28;12.30
80164;BME280;69489;55.130;61.268;2023-05-02T13:06:21;99253.09;;;34.97;12.38
80164;BME280;69489;55.130;61.268;2023-05-02T13:08:47;99248.84;;;34.66;12.27
80164;BME280;69489;55.130;61.268;2023-05-02T13:11:13;99235.16;;;34.57;12.62
80164;BME280;69489;55.130;61.268;2023-05-02T13:13:39;99232.66;;;34.64;12.51
80164;BME280;69489;55.130;61.268;2023-05-02T13:16:05;99247.91;;;34.83;12.15
80164;BME280;69489;55.130;61.268;2023-05-02T13:18:31;99245.06;;;34.92;12.86
80164;BME280;69489;55.130;61.268;2023-05-02T13:21:00;99248.16;;;35.02;12.28
80164;BME280;69489;55.130;61.268;2023-05-02T13:23:25;99245.09;;;35.16;12.36
80164;BME280;69489;55.130;61.268;2023-05-02T13:25:51;99236.59;;;35.21;12.10
80164;BME280;69489;55.130;61.268;2023-05-02T13:28:17;99261.34;;;35.43;12.79
80164;BME280;69489;55.130;61.268;2023-05-02T13:30:43;99242.94;;;35.47;12.02
80164;BME280;69489;55.130;61.268;2023-05-02T13:33:09;99238.59;;;35.58;12.15
80164;BME280;69489;55.130;61.268;2023-05-02T13:35:35;99250.97;;;35.76;11.73
80164;BME280;69489;55.130;61.268;2023-05-02T13:38:01;99231.56;;;35.73;11.41